Kansas City, Missouri
Current Conditions -  °F | °C
As of 7:54 PM on Thursday 20 Nov 2014 (Local Time) from KMKC Reporting Station
Clear Clear  
Wind Chill: 24°   Ceiling: Unl
Heat Index: 31°   Visibility: 10mi
Dew Point: 17°   Wind: 7mph
Humidity: 57%   Direction: 90°E
Pressure: 30.24"   Gusts: NA
Location:  39.1°N, 94.58°W
Report Text: KMKC 210154Z 09006KT 10SM CLR M01/M08 A3024 RMK AO2 SLP250 T10061083
Loading
Personal Weather Stations






























Interactive Weather Map New forecast layout! Learn more

10-Day Weather Forecast

Advertisements
Track Severe Weather on mobile